sensor_id;sensor_type;location;lat;lon;timestamp;pressure;altitude;pressure_sealevel;temperature;humidity
35704;BME280;21820;51.112;13.762;2023-05-23T00:01:34;99020.34;;;22.99;43.40
35704;BME280;21820;51.112;13.762;2023-05-23T00:04:05;98999.50;;;22.89;43.85
35704;BME280;21820;51.112;13.762;2023-05-23T00:06:30;99013.75;;;23.03;44.01
35704;BME280;21820;51.112;13.762;2023-05-23T00:08:56;99017.38;;;23.02;43.21
35704;BME280;21820;51.112;13.762;2023-05-23T00:11:22;99006.22;;;23.00;43.59
35704;BME280;21820;51.112;13.762;2023-05-23T00:13:52;98990.66;;;22.90;43.62
35704;BME280;21820;51.112;13.762;2023-05-23T00:16:18;99003.59;;;23.00;43.63
35704;BME280;21820;51.112;13.762;2023-05-23T00:18:43;99001.97;;;22.99;43.62
35704;BME280;21820;51.112;13.762;2023-05-23T00:21:12;98999.81;;;23.02;43.32
35704;BME280;21820;51.112;13.762;2023-05-23T00:23:38;99003.59;;;23.00;43.86
35704;BME280;21820;51.112;13.762;2023-05-23T00:26:07;99005.91;;;23.03;43.87
35704;BME280;21820;51.112;13.762;2023-05-23T00:28:32;99005.25;;;23.01;43.87
35704;BME280;21820;51.112;13.762;2023-05-23T00:30:57;99006.06;;;23.01;43.94
35704;BME280;21820;51.112;13.762;2023-05-23T00:33:23;99011.47;;;23.00;44.03
35704;BME280;21820;51.112;13.762;2023-05-23T00:35:48;99012.13;;;23.02;43.13
35704;BME280;21820;51.112;13.762;2023-05-23T00:38:13;99024.25;;;23.03;43.62
35704;BME280;21820;51.112;13.762;2023-05-23T00:40:40;99029.81;;;23.00;43.59
35704;BME280;21820;51.112;13.762;2023-05-23T00:43:05;99042.59;;;23.03;43.22
35704;BME280;21820;51.112;13.762;2023-05-23T00:45:32;99040.31;;;23.00;43.57
35704;BME280;21820;51.112;13.762;2023-05-23T00:47:58;99046.84;;;23.04;43.34
35704;BME280;21820;51.112;13.762;2023-05-23T00:50:24;99044.41;;;23.02;43.88
35704;BME280;21820;51.112;13.762;2023-05-23T00:52:54;99052.09;;;23.04;43.25
35704;BME280;21820;51.112;13.762;2023-05-23T00:55:19;99040.97;;;23.02;43.24
35704;BME280;21820;51.112;13.762;2023-05-23T00:57:45;99043.59;;;23.02;43.79
35704;BME280;21820;51.112;13.762;2023-05-23T01:00:11;99044.91;;;23.06;43.59
35704;BME280;21820;51.112;13.762;2023-05-23T01:02:45;99035.75;;;23.02;43.67
35704;BME280;21820;51.112;13.762;2023-05-23T01:05:15;99024.25;;;23.03;43.80
35704;BME280;21820;51.112;13.762;2023-05-23T01:07:45;99003.28;;;23.03;43.43
35704;BME280;21820;51.112;13.762;2023-05-23T01:10:12;99003.94;;;23.05;43.85
35704;BME280;21820;51.112;13.762;2023-05-23T01:15:18;98993.63;;;23.03;43.21
35704;BME280;21820;51.112;13.762;2023-05-23T01:20:21;98981.97;;;23.06;43.30
35704;BME280;21820;51.112;13.762;2023-05-23T01:28:27;99011.47;;;23.08;43.20
35704;BME280;21820;51.112;13.762;2023-05-23T01:30:56;98999.66;;;23.04;43.09
35704;BME280;21820;51.112;13.762;2023-05-23T01:33:23;98997.22;;;23.02;43.54
35704;BME280;21820;51.112;13.762;2023-05-23T01:35:49;99000.16;;;23.07;43.84
35704;BME280;21820;51.112;13.762;2023-05-23T01:38:15;99010.97;;;23.04;43.52
35704;BME280;21820;51.112;13.762;2023-05-23T01:40:40;99023.44;;;23.02;43.59
35704;BME280;21820;51.112;13.762;2023-05-23T01:43:06;99027.22;;;23.08;43.83
35704;BME280;21820;51.112;13.762;2023-05-23T01:45:32;99024.59;;;23.08;43.52
35704;BME280;21820;51.112;13.762;2023-05-23T01:47:58;99035.25;;;23.06;43.54
35704;BME280;21820;51.112;13.762;2023-05-23T01:50:24;99041.31;;;23.07;43.45
35704;BME280;21820;51.112;13.762;2023-05-23T01:52:51;99037.69;;;23.08;43.50
35704;BME280;21820;51.112;13.762;2023-05-23T01:55:19;99036.88;;;23.07;43.76
35704;BME280;21820;51.112;13.762;2023-05-23T01:57:49;99031.97;;;23.04;43.55
35704;BME280;21820;51.112;13.762;2023-05-23T02:00:16;99032.44;;;23.08;43.89
35704;BME280;21820;51.112;13.762;2023-05-23T02:02:41;99036.88;;;23.07;43.43
35704;BME280;21820;51.112;13.762;2023-05-23T02:05:08;99039.03;;;23.12;43.69
35704;BME280;21820;51.112;13.762;2023-05-23T02:07:34;99009.03;;;22.98;43.19
35704;BME280;21820;51.112;13.762;2023-05-23T02:09:59;99021.63;;;23.11;43.62
35704;BME280;21820;51.112;13.762;2023-05-23T02:12:24;98998.69;;;22.97;43.55
35704;BME280;21820;51.112;13.762;2023-05-23T02:14:50;99009.34;;;23.03;43.47
35704;BME280;21820;51.112;13.762;2023-05-23T02:17:19;99011.16;;;23.11;42.92
35704;BME280;21820;51.112;13.762;2023-05-23T02:19:46;98991.50;;;22.99;43.81
35704;BME280;21820;51.112;13.762;2023-05-23T02:22:12;99005.09;;;23.10;43.16
35704;BME280;21820;51.112;13.762;2023-05-23T02:24:37;98989.19;;;23.04;43.15
35704;BME280;21820;51.112;13.762;2023-05-23T02:27:03;98991.31;;;23.08;43.79
35704;BME280;21820;51.112;13.762;2023-05-23T02:29:28;98993.78;;;23.10;43.10
35704;BME280;21820;51.112;13.762;2023-05-23T02:31:54;98999.03;;;23.10;44.19
35704;BME280;21820;51.112;13.762;2023-05-23T02:34:19;98981.63;;;23.09;43.46
35704;BME280;21820;51.112;13.762;2023-05-23T02:36:45;98976.88;;;23.12;43.23
35704;BME280;21820;51.112;13.762;2023-05-23T02:39:10;98969.19;;;23.11;43.38
35704;BME280;21820;51.112;13.762;2023-05-23T02:41:35;98966.06;;;23.15;43.84
35704;BME280;21820;51.112;13.762;2023-05-23T02:44:01;98967.56;;;23.10;43.64
35704;BME280;21820;51.112;13.762;2023-05-23T02:46:27;98962.31;;;23.10;43.37
35704;BME280;21820;51.112;13.762;2023-05-23T02:48:52;98957.06;;;23.10;43.49
35704;BME280;21820;51.112;13.762;2023-05-23T02:51:17;98959.69;;;23.10;43.43
35704;BME280;21820;51.112;13.762;2023-05-23T02:53:43;98955.13;;;23.12;43.17
35704;BME280;21820;51.112;13.762;2023-05-23T02:56:08;98946.91;;;23.07;43.37
35704;BME280;21820;51.112;13.762;2023-05-23T02:58:34;98944.13;;;23.08;43.20
35704;BME280;21820;51.112;13.762;2023-05-23T03:01:03;98941.34;;;23.10;43.02
35704;BME280;21820;51.112;13.762;2023-05-23T03:03:29;98931.81;;;23.09;43.49
35704;BME280;21820;51.112;13.762;2023-05-23T03:05:56;98921.03;;;23.12;43.38
35704;BME280;21820;51.112;13.762;2023-05-23T03:08:22;98917.75;;;23.10;43.64
35704;BME280;21820;51.112;13.762;2023-05-23T03:10:47;98923.47;;;23.13;43.22
35704;BME280;21820;51.112;13.762;2023-05-23T03:13:13;98928.91;;;23.12;43.17
35704;BME280;21820;51.112;13.762;2023-05-23T03:15:38;98932.47;;;23.11;43.16
35704;BME280;21820;51.112;13.762;2023-05-23T03:18:04;98928.91;;;23.12;43.38
35704;BME280;21820;51.112;13.762;2023-05-23T03:20:29;98933.13;;;23.13;43.64
35704;BME280;21820;51.112;13.762;2023-05-23T03:22:54;98930.53;;;23.13;43.64
35704;BME280;21820;51.112;13.762;2023-05-23T03:25:20;98910.53;;;23.04;43.54
35704;BME280;21820;51.112;13.762;2023-05-23T03:27:45;98920.03;;;23.13;42.99
35704;BME280;21820;51.112;13.762;2023-05-23T03:30:11;98919.03;;;23.14;43.59
35704;BME280;21820;51.112;13.762;2023-05-23T03:32:36;98914.78;;;23.13;43.60
35704;BME280;21820;51.112;13.762;2023-05-23T03:35:02;98915.44;;;23.15;43.64
35704;BME280;21820;51.112;13.762;2023-05-23T03:37:27;98906.91;;;23.13;43.38
35704;BME280;21820;51.112;13.762;2023-05-23T03:39:52;98909.88;;;23.18;43.68
35704;BME280;21820;51.112;13.762;2023-05-23T03:42:18;98900.69;;;23.14;43.39
35704;BME280;21820;51.112;13.762;2023-05-23T03:44:43;98905.94;;;23.14;43.08
35704;BME280;21820;51.112;13.762;2023-05-23T03:47:08;98907.59;;;23.15;43.08
35704;BME280;21820;51.112;13.762;2023-05-23T03:49:34;98906.25;;;23.11;43.32
35704;BME280;21820;51.112;13.762;2023-05-23T03:51:59;98905.13;;;23.13;43.37
35704;BME280;21820;51.112;13.762;2023-05-23T03:54:24;98910.53;;;23.12;43.83
35704;BME280;21820;51.112;13.762;2023-05-23T03:56:50;98923.31;;;23.15;43.69
35704;BME280;21820;51.112;13.762;2023-05-23T03:59:16;98920.84;;;23.13;43.05
35704;BME280;21820;51.112;13.762;2023-05-23T04:01:41;98920.53;;;23.16;43.65
35704;BME280;21820;51.112;13.762;2023-05-23T04:04:06;98929.69;;;23.20;42.98
35704;BME280;21820;51.112;13.762;2023-05-23T04:06:32;98926.59;;;23.17;43.29
35704;BME280;21820;51.112;13.762;2023-05-23T04:08:57;98935.44;;;23.16;43.55
35704;BME280;21820;51.112;13.762;2023-05-23T04:11:23;98946.75;;;23.16;43.38
35704;BME280;21820;51.112;13.762;2023-05-23T04:13:48;98942.47;;;23.15;42.94
35704;BME280;21820;51.112;13.762;2023-05-23T04:16:14;98949.19;;;23.18;43.26
35704;BME280;21820;51.112;13.762;2023-05-23T04:18:39;98947.56;;;23.17;43.11
35704;BME280;21820;51.112;13.762;2023-05-23T04:21:05;98946.56;;;23.18;42.96
35704;BME280;21820;51.112;13.762;2023-05-23T04:23:30;98947.56;;;23.17;42.84
35704;BME280;21820;51.112;13.762;2023-05-23T04:25:55;98955.56;;;23.15;43.51
35704;BME280;21820;51.112;13.762;2023-05-23T04:28:25;98951.16;;;23.08;43.66
35704;BME280;21820;51.112;13.762;2023-05-23T04:30:50;98973.78;;;23.17;43.43
35704;BME280;21820;51.112;13.762;2023-05-23T04:33:17;98971.31;;;23.15;43.10
35704;BME280;21820;51.112;13.762;2023-05-23T04:35:42;98971.31;;;23.15;43.62
35704;BME280;21820;51.112;13.762;2023-05-23T04:38:08;98968.56;;;23.17;42.90
35704;BME280;21820;51.112;13.762;2023-05-23T04:40:34;98975.59;;;23.16;42.98
35704;BME280;21820;51.112;13.762;2023-05-23T04:43:00;98970.50;;;23.15;43.25
35704;BME280;21820;51.112;13.762;2023-05-23T04:45:25;98971.00;;;23.18;43.10
35704;BME280;21820;51.112;13.762;2023-05-23T04:47:51;98971.19;;;23.17;42.87
35704;BME280;21820;51.112;13.762;2023-05-23T04:50:19;98963.78;;;23.20;42.87
35704;BME280;21820;51.112;13.762;2023-05-23T04:52:46;98966.91;;;23.16;43.45
35704;BME280;21820;51.112;13.762;2023-05-23T04:55:11;98971.63;;;23.20;43.52
35704;BME280;21820;51.112;13.762;2023-05-23T04:57:37;98968.22;;;23.20;43.54
35704;BME280;21820;51.112;13.762;2023-05-23T05:00:03;98964.28;;;23.16;43.21
35704;BME280;21820;51.112;13.762;2023-05-23T05:02:37;98969.03;;;23.12;43.01
35704;BME280;21820;51.112;13.762;2023-05-23T05:05:03;98971.63;;;23.20;43.47
35704;BME280;21820;51.112;13.762;2023-05-23T05:07:29;98972.97;;;23.16;42.80
35704;BME280;21820;51.112;13.762;2023-05-23T05:09:54;98977.06;;;23.19;43.01
35704;BME280;21820;51.112;13.762;2023-05-23T05:12:20;98977.06;;;23.19;42.93
35704;BME280;21820;51.112;13.762;2023-05-23T05:14:45;98980.50;;;23.19;43.02
35704;BME280;21820;51.112;13.762;2023-05-23T05:17:10;98978.22;;;23.16;42.99
35704;BME280;21820;51.112;13.762;2023-05-23T05:19:37;98981.34;;;23.20;43.12
35704;BME280;21820;51.112;13.762;2023-05-23T05:22:02;98980.34;;;23.21;43.35
35704;BME280;21820;51.112;13.762;2023-05-23T05:24:27;98980.34;;;23.21;43.55
35704;BME280;21820;51.112;13.762;2023-05-23T05:26:53;98983.28;;;23.18;42.80
35704;BME280;21820;51.112;13.762;2023-05-23T05:29:19;98980.34;;;23.21;43.51
35704;BME280;21820;51.112;13.762;2023-05-23T05:31:45;98985.56;;;23.21;43.19
35704;BME280;21820;51.112;13.762;2023-05-23T05:34:11;98980.34;;;23.21;43.21
35704;BME280;21820;51.112;13.762;2023-05-23T05:36:37;98985.56;;;23.21;43.59
35704;BME280;21820;51.112;13.762;2023-05-23T05:39:03;98975.91;;;23.21;43.38
35704;BME280;21820;51.112;13.762;2023-05-23T05:41:28;98981.16;;;23.21;42.94
35704;BME280;21820;51.112;13.762;2023-05-23T05:43:53;98981.00;;;23.23;42.88
35704;BME280;21820;51.112;13.762;2023-05-23T05:46:19;98981.66;;;23.25;43.65
35704;BME280;21820;51.112;13.762;2023-05-23T05:48:45;98985.25;;;23.24;43.47
35704;BME280;21820;51.112;13.762;2023-05-23T05:51:10;98974.13;;;23.22;43.31
35704;BME280;21820;51.112;13.762;2023-05-23T05:53:35;98982.00;;;23.22;43.08
35704;BME280;21820;51.112;13.762;2023-05-23T05:56:01;98981.00;;;23.23;43.10
35704;BME280;21820;51.112;13.762;2023-05-23T05:58:26;98989.69;;;23.23;43.00
35704;BME280;21820;51.112;13.762;2023-05-23T06:00:52;98989.19;;;23.20;42.92
35704;BME280;21820;51.112;13.762;2023-05-23T06:03:17;98998.84;;;23.19;43.17
35704;BME280;21820;51.112;13.762;2023-05-23T06:05:43;99001.16;;;23.22;43.07
35704;BME280;21820;51.112;13.762;2023-05-23T06:08:08;98999.34;;;23.23;43.50
35704;BME280;21820;51.112;13.762;2023-05-23T06:10:36;99003.78;;;23.22;43.88
35704;BME280;21820;51.112;13.762;2023-05-23T06:13:01;99002.16;;;23.21;43.63
35704;BME280;21820;51.112;13.762;2023-05-23T06:15:27;98984.25;;;23.09;43.74
35704;BME280;21820;51.112;13.762;2023-05-23T06:17:52;99004.94;;;23.20;43.13
35704;BME280;21820;51.112;13.762;2023-05-23T06:20:17;99007.56;;;23.20;43.42
35704;BME280;21820;51.112;13.762;2023-05-23T06:22:43;99008.22;;;23.22;43.16
35704;BME280;21820;51.112;13.762;2023-05-23T06:25:08;98987.53;;;23.11;43.79
35704;BME280;21820;51.112;13.762;2023-05-23T06:27:34;99010.19;;;23.20;43.09
35704;BME280;21820;51.112;13.762;2023-05-23T06:29:59;99005.44;;;23.23;43.44
35704;BME280;21820;51.112;13.762;2023-05-23T06:32:24;99001.31;;;23.21;43.46
35704;BME280;21820;51.112;13.762;2023-05-23T06:34:50;99011.47;;;23.24;43.71
35704;BME280;21820;51.112;13.762;2023-05-23T06:37:15;99015.91;;;23.23;43.09
35704;BME280;21820;51.112;13.762;2023-05-23T06:39:42;99015.09;;;23.23;43.01
35704;BME280;21820;51.112;13.762;2023-05-23T06:42:07;99017.06;;;23.21;43.71
35704;BME280;21820;51.112;13.762;2023-05-23T06:44:32;99023.94;;;23.22;43.08
35704;BME280;21820;51.112;13.762;2023-05-23T06:46:58;99015.09;;;23.23;42.99
35704;BME280;21820;51.112;13.762;2023-05-23T06:49:24;99006.56;;;23.21;43.38
35704;BME280;21820;51.112;13.762;2023-05-23T06:51:50;99017.53;;;23.24;43.21
35704;BME280;21820;51.112;13.762;2023-05-23T06:54:16;99021.34;;;23.22;43.41
35704;BME280;21820;51.112;13.762;2023-05-23T06:56:41;99015.75;;;23.17;43.73
35704;BME280;21820;51.112;13.762;2023-05-23T06:59:06;99016.72;;;23.24;43.74
35704;BME280;21820;51.112;13.762;2023-05-23T07:01:32;99014.91;;;23.24;43.12
35704;BME280;21820;51.112;13.762;2023-05-23T07:03:57;99010.84;;;23.22;43.74
35704;BME280;21820;51.112;13.762;2023-05-23T07:06:22;99020.00;;;23.26;43.09
35704;BME280;21820;51.112;13.762;2023-05-23T07:08:48;99013.13;;;23.25;43.86
35704;BME280;21820;51.112;13.762;2023-05-23T07:11:13;99021.34;;;23.22;43.71
35704;BME280;21820;51.112;13.762;2023-05-23T07:13:39;99020.34;;;23.23;43.57
35704;BME280;21820;51.112;13.762;2023-05-23T07:16:04;99026.25;;;23.25;43.31
35704;BME280;21820;51.112;13.762;2023-05-23T07:18:30;99024.41;;;23.25;42.98
35704;BME280;21820;51.112;13.762;2023-05-23T07:20:55;99030.66;;;23.24;42.91
35704;BME280;21820;51.112;13.762;2023-05-23T07:23:22;99028.88;;;23.25;42.96
35704;BME280;21820;51.112;13.762;2023-05-23T07:25:48;99030.50;;;23.26;43.63
35704;BME280;21820;51.112;13.762;2023-05-23T07:28:13;99014.09;;;23.16;43.68
35704;BME280;21820;51.112;13.762;2023-05-23T07:30:40;99031.34;;;23.27;42.88
35704;BME280;21820;51.112;13.762;2023-05-23T07:33:05;99032.44;;;23.24;43.23
35704;BME280;21820;51.112;13.762;2023-05-23T07:35:31;99031.97;;;23.20;43.40
35704;BME280;21820;51.112;13.762;2023-05-23T07:37:56;99026.25;;;23.25;43.03
35704;BME280;21820;51.112;13.762;2023-05-23T07:40:22;99032.44;;;23.24;43.26
35704;BME280;21820;51.112;13.762;2023-05-23T07:42:47;99027.38;;;23.22;43.18
35704;BME280;21820;51.112;13.762;2023-05-23T07:45:13;99032.44;;;23.24;43.63
35704;BME280;21820;51.112;13.762;2023-05-23T07:47:38;99026.25;;;23.25;43.14
35704;BME280;21820;51.112;13.762;2023-05-23T07:50:04;99023.31;;;23.28;43.67
35704;BME280;21820;51.112;13.762;2023-05-23T07:52:30;99019.03;;;23.27;43.59
35704;BME280;21820;51.112;13.762;2023-05-23T07:54:57;99024.41;;;23.25;43.79
35704;BME280;21820;51.112;13.762;2023-05-23T07:57:23;99038.53;;;23.24;43.36
35704;BME280;21820;51.112;13.762;2023-05-23T07:59:52;99034.13;;;23.25;43.61
35704;BME280;21820;51.112;13.762;2023-05-23T08:02:17;99015.75;;;23.17;43.38
35704;BME280;21820;51.112;13.762;2023-05-23T08:04:43;99032.44;;;23.24;43.37
35704;BME280;21820;51.112;13.762;2023-05-23T08:07:09;99013.75;;;23.19;43.43
35704;BME280;21820;51.112;13.762;2023-05-23T08:09:36;99012.13;;;23.18;43.43
35704;BME280;21820;51.112;13.762;2023-05-23T08:12:01;99032.16;;;23.27;43.67
35704;BME280;21820;51.112;13.762;2023-05-23T08:14:27;99032.16;;;23.27;43.66
35704;BME280;21820;51.112;13.762;2023-05-23T08:16:52;99046.94;;;23.28;43.43
35704;BME280;21820;51.112;13.762;2023-05-23T08:19:17;99035.44;;;23.29;43.06
35704;BME280;21820;51.112;13.762;2023-05-23T08:21:43;99040.97;;;23.26;43.33
35704;BME280;21820;51.112;13.762;2023-05-23T08:24:08;99048.56;;;23.29;43.21
35704;BME280;21820;51.112;13.762;2023-05-23T08:26:33;99042.34;;;23.30;43.05
35704;BME280;21820;51.112;13.762;2023-05-23T08:29:00;99042.34;;;23.30;43.23
35704;BME280;21820;51.112;13.762;2023-05-23T08:31:29;99048.72;;;23.28;43.46
35704;BME280;21820;51.112;13.762;2023-05-23T08:33:55;99051.34;;;23.28;42.94
35704;BME280;21820;51.112;13.762;2023-05-23T08:36:20;99059.72;;;23.31;43.15
35704;BME280;21820;51.112;13.762;2023-05-23T08:38:45;99054.13;;;23.34;43.21
35704;BME280;21820;51.112;13.762;2023-05-23T08:41:17;99058.25;;;23.29;43.68
35704;BME280;21820;51.112;13.762;2023-05-23T08:43:43;99056.09;;;23.32;43.64
35704;BME280;21820;51.112;13.762;2023-05-23T08:46:08;99051.47;;;23.26;43.08
35704;BME280;21820;51.112;13.762;2023-05-23T08:48:37;99059.72;;;23.31;42.94
35704;BME280;21820;51.112;13.762;2023-05-23T08:51:03;99061.00;;;23.27;43.25
35704;BME280;21820;51.112;13.762;2023-05-23T08:53:30;99064.13;;;23.31;43.29
35704;BME280;21820;51.112;13.762;2023-05-23T08:55:57;99053.13;;;23.27;42.94
35704;BME280;21820;51.112;13.762;2023-05-23T08:58:30;99060.53;;;23.32;43.55
35704;BME280;21820;51.112;13.762;2023-05-23T09:00:58;99066.59;;;23.32;42.98
35704;BME280;21820;51.112;13.762;2023-05-23T09:03:26;99069.19;;;23.32;43.50
35704;BME280;21820;51.112;13.762;2023-05-23T09:05:55;99061.34;;;23.32;43.22
35704;BME280;21820;51.112;13.762;2023-05-23T09:08:22;99063.63;;;23.27;43.25
35704;BME280;21820;51.112;13.762;2023-05-23T09:10:48;99065.13;;;23.30;43.65
35704;BME280;21820;51.112;13.762;2023-05-23T09:13:15;99058.34;;;23.19;43.27
35704;BME280;21820;51.112;13.762;2023-05-23T09:16:01;99081.03;;;23.28;43.63
35704;BME280;21820;51.112;13.762;2023-05-23T09:18:36;99079.69;;;23.32;43.49
35704;BME280;21820;51.112;13.762;2023-05-23T09:21:02;99075.44;;;23.31;43.16
35704;BME280;21820;51.112;13.762;2023-05-23T09:23:31;99057.06;;;23.23;43.20
35704;BME280;21820;51.112;13.762;2023-05-23T09:26:04;99073.13;;;23.20;43.00
35704;BME280;21820;51.112;13.762;2023-05-23T09:28:31;99090.69;;;23.36;43.09
35704;BME280;21820;51.112;13.762;2023-05-23T09:31:01;99068.53;;;23.22;43.14
35704;BME280;21820;51.112;13.762;2023-05-23T09:33:42;99092.81;;;23.32;42.78
35704;BME280;21820;51.112;13.762;2023-05-23T09:36:09;99098.06;;;23.32;43.31
35704;BME280;21820;51.112;13.762;2023-05-23T09:38:39;99102.34;;;23.33;43.46
35704;BME280;21820;51.112;13.762;2023-05-23T09:41:05;99074.75;;;23.21;43.44
35704;BME280;21820;51.112;13.762;2023-05-23T09:43:30;99091.84;;;23.33;43.60
35704;BME280;21820;51.112;13.762;2023-05-23T09:46:09;99089.38;;;23.32;42.85
35704;BME280;21820;51.112;13.762;2023-05-23T09:48:34;99079.66;;;23.24;43.60
35704;BME280;21820;51.112;13.762;2023-05-23T09:51:03;99099.72;;;23.33;43.73
35704;BME280;21820;51.112;13.762;2023-05-23T09:53:29;99084.94;;;23.32;42.82
35704;BME280;21820;51.112;13.762;2023-05-23T09:55:57;99099.38;;;23.36;42.88
35704;BME280;21820;51.112;13.762;2023-05-23T09:58:25;99094.47;;;23.33;42.96
35704;BME280;21820;51.112;13.762;2023-05-23T10:00:52;99108.25;;;23.35;42.91
35704;BME280;21820;51.112;13.762;2023-05-23T10:03:27;99113.50;;;23.35;43.47
35704;BME280;21820;51.112;13.762;2023-05-23T10:05:57;99100.34;;;23.27;43.33
35704;BME280;21820;51.112;13.762;2023-05-23T10:08:33;99095.22;;;23.25;42.84
35704;BME280;21820;51.112;13.762;2023-05-23T10:12:02;99122.50;;;23.33;42.90
35704;BME280;21820;51.112;13.762;2023-05-23T10:14:15;99122.34;;;23.34;43.59
35704;BME280;21820;51.112;13.762;2023-05-23T10:17:02;99114.78;;;23.31;43.27
35704;BME280;21820;51.112;13.762;2023-05-23T10:19:32;99122.16;;;23.36;42.78
35704;BME280;21820;51.112;13.762;2023-05-23T10:22:00;99124.78;;;23.36;43.16
35704;BME280;21820;51.112;13.762;2023-05-23T10:24:28;99127.56;;;23.34;43.09
35704;BME280;21820;51.112;13.762;2023-05-23T10:26:54;99112.84;;;23.33;43.68
35704;BME280;21820;51.112;13.762;2023-05-23T10:29:23;99128.41;;;23.35;43.28
35704;BME280;21820;51.112;13.762;2023-05-23T10:31:49;99125.13;;;23.33;42.90
35704;BME280;21820;51.112;13.762;2023-05-23T10:34:21;99131.03;;;23.35;43.23
35704;BME280;21820;51.112;13.762;2023-05-23T10:36:56;99136.44;;;23.33;43.49
35704;BME280;21820;51.112;13.762;2023-05-23T10:42:41;99140.03;;;23.32;43.42
35704;BME280;21820;51.112;13.762;2023-05-23T10:45:20;99134.78;;;23.32;42.95
35704;BME280;21820;51.112;13.762;2023-05-23T10:47:50;99132.81;;;23.34;43.10
35704;BME280;21820;51.112;13.762;2023-05-23T10:50:30;99143.16;;;23.36;43.23
35704;BME280;21820;51.112;13.762;2023-05-23T10:52:58;99148.56;;;23.34;42.65
35704;BME280;21820;51.112;13.762;2023-05-23T10:55:24;99140.03;;;23.32;43.51
35704;BME280;21820;51.112;13.762;2023-05-23T11:00:55;99141.69;;;23.33;43.47
35704;BME280;21820;51.112;13.762;2023-05-23T11:03:35;99141.03;;;23.39;43.38
35704;BME280;21820;51.112;13.762;2023-05-23T11:06:03;99125.78;;;23.27;42.94
35704;BME280;21820;51.112;13.762;2023-05-23T11:08:38;99145.59;;;23.37;43.13
35704;BME280;21820;51.112;13.762;2023-05-23T11:11:06;99154.47;;;23.28;43.52
35704;BME280;21820;51.112;13.762;2023-05-23T11:13:56;99145.28;;;23.32;43.51
35704;BME280;21820;51.112;13.762;2023-05-23T11:16:40;99147.59;;;23.35;43.32
35704;BME280;21820;51.112;13.762;2023-05-23T11:21:43;99154.13;;;23.31;42.96
35704;BME280;21820;51.112;13.762;2023-05-23T11:24:09;99161.69;;;23.34;43.38
35704;BME280;21820;51.112;13.762;2023-05-23T11:26:35;99159.06;;;23.34;43.47
35704;BME280;21820;51.112;13.762;2023-05-23T11:29:00;99157.09;;;23.36;43.42
35704;BME280;21820;51.112;13.762;2023-05-23T11:31:28;99160.72;;;23.35;42.91
35704;BME280;21820;51.112;13.762;2023-05-23T11:33:54;99155.47;;;23.35;43.13
35704;BME280;21820;51.112;13.762;2023-05-23T11:36:20;99156.28;;;23.36;43.34
35704;BME280;21820;51.112;13.762;2023-05-23T11:38:48;99155.13;;;23.38;43.42
35704;BME280;21820;51.112;13.762;2023-05-23T11:41:13;99159.56;;;23.38;43.16
35704;BME280;21820;51.112;13.762;2023-05-23T11:43:49;99159.06;;;23.34;42.89
35704;BME280;21820;51.112;13.762;2023-05-23T11:46:14;99146.09;;;23.33;43.48
35704;BME280;21820;51.112;13.762;2023-05-23T11:48:49;99141.66;;;23.25;43.14
35704;BME280;21820;51.112;13.762;2023-05-23T11:51:14;99159.06;;;23.34;43.31
35704;BME280;21820;51.112;13.762;2023-05-23T11:53:41;99159.38;;;23.31;43.57
35704;BME280;21820;51.112;13.762;2023-05-23T11:56:06;99162.34;;;23.36;43.13
35704;BME280;21820;51.112;13.762;2023-05-23T11:58:34;99160.72;;;23.35;43.58
35704;BME280;21820;51.112;13.762;2023-05-23T12:01:03;99150.31;;;23.25;43.14
35704;BME280;21820;51.112;13.762;2023-05-23T12:03:29;99150.84;;;23.29;42.93
35704;BME280;21820;51.112;13.762;2023-05-23T12:05:56;99157.25;;;23.35;43.15
35704;BME280;21820;51.112;13.762;2023-05-23T12:08:22;99159.06;;;23.34;43.26
35704;BME280;21820;51.112;13.762;2023-05-23T12:10:56;99158.72;;;23.37;42.91
35704;BME280;21820;51.112;13.762;2023-05-23T12:13:28;99159.72;;;23.36;42.84
35704;BME280;21820;51.112;13.762;2023-05-23T12:16:01;99157.09;;;23.36;42.66
35704;BME280;21820;51.112;13.762;2023-05-23T12:18:28;99151.19;;;23.34;42.79
35704;BME280;21820;51.112;13.762;2023-05-23T12:20:54;99157.75;;;23.38;43.30
35704;BME280;21820;51.112;13.762;2023-05-23T12:23:23;99150.72;;;23.39;42.82
35704;BME280;21820;51.112;13.762;2023-05-23T12:25:52;99156.09;;;23.37;43.81
35704;BME280;21820;51.112;13.762;2023-05-23T12:28:19;99155.97;;;23.39;43.54
35704;BME280;21820;51.112;13.762;2023-05-23T12:30:45;99163.97;;;23.37;43.01
35704;BME280;21820;51.112;13.762;2023-05-23T12:33:10;99167.25;;;23.39;43.61
35704;BME280;21820;51.112;13.762;2023-05-23T12:35:42;99165.31;;;23.41;42.70
35704;BME280;21820;51.112;13.762;2023-05-23T12:38:09;99141.19;;;23.30;43.41
35704;BME280;21820;51.112;13.762;2023-05-23T12:40:34;99165.31;;;23.41;42.84
35704;BME280;21820;51.112;13.762;2023-05-23T12:43:00;99162.84;;;23.40;42.86
35704;BME280;21820;51.112;13.762;2023-05-23T12:45:32;99164.31;;;23.42;43.23
35704;BME280;21820;51.112;13.762;2023-05-23T12:47:59;99169.22;;;23.37;43.35
35704;BME280;21820;51.112;13.762;2023-05-23T12:50:24;99170.88;;;23.38;43.44
35704;BME280;21820;51.112;13.762;2023-05-23T12:52:50;99154.75;;;23.25;43.20
35704;BME280;21820;51.112;13.762;2023-05-23T12:55:15;99169.88;;;23.39;43.29
35704;BME280;21820;51.112;13.762;2023-05-23T12:57:40;99180.53;;;23.38;42.84
35704;BME280;21820;51.112;13.762;2023-05-23T13:00:06;99181.38;;;23.38;43.40
35704;BME280;21820;51.112;13.762;2023-05-23T13:02:32;99160.16;;;23.23;43.20
35704;BME280;21820;51.112;13.762;2023-05-23T13:04:57;99180.53;;;23.38;42.88
35704;BME280;21820;51.112;13.762;2023-05-23T13:07:23;99188.41;;;23.38;43.20
35704;BME280;21820;51.112;13.762;2023-05-23T13:09:48;99178.09;;;23.36;42.90